Prentiss, North Carolina
Current Conditions -  °F | °C
As of 8:35 PM on Sunday 23 Nov 2014 (Local Time) from KRHP Reporting Station
Overcast Overcast  
Wind Chill: 59°   Ceiling: 3400
Heat Index: 59°   Visibility: 10mi
Dew Point: 53°   Wind: 10mph
Humidity: 79%   Direction: 210°SSW
Pressure: 29.67"   Gusts: NA
Location:  35.1737°N, 83.4215°W
Report Text: KRHP 240135Z AUTO 21009KT 10SM SCT026 BKN034 OVC050 15/12 A2967 RMK AO2 T01520116
Loading
Personal Weather Stations






























Interactive Weather Map New forecast layout! Learn more

10-Day Weather Forecast

Advertisements
Track Severe Weather on mobile